Time;durP1;ratioP1;P1;durP2;ratioP2;P2;SDS_P1;SDS_P2;PMS_P1;PMS_P2;Temp;Humidity;BMP_temperature;BMP_pressure;BME280_temperature;BME280_humidity;BME280_pressure;Samples;Min_cycle;Max_cycle;Signal;HPM_P1;HPM_P2
2024/02/07 00:02:01;;;;;;;9.07;5.90;;;11.70;99.90;;;;;;5074513;28;20440;-56
2024/02/07 00:04:28;;;;;;;14.03;5.53;;;11.60;99.90;;;;;;5074301;28;20816;-56
2024/02/07 00:06:55;;;;;;;9.67;6.40;;;11.60;99.90;;;;;;5073909;28;20824;-57
2024/02/07 00:09:21;;;;;;;10.77;6.37;;;11.60;99.90;;;;;;5074657;28;20441;-57
2024/02/07 00:11:48;;;;;;;10.70;6.20;;;11.60;99.90;;;;;;5074198;28;20451;-57
2024/02/07 00:14:16;;;;;;;9.00;6.20;;;11.60;99.90;;;;;;5074111;28;20464;-57
2024/02/07 00:16:43;;;;;;;9.03;5.33;;;11.60;99.90;;;;;;5073697;28;20475;-57
2024/02/07 00:19:09;;;;;;;11.07;5.90;;;11.70;99.90;;;;;;5073857;28;20476;-57
2024/02/07 00:21:36;;;;;;;12.73;6.30;;;11.70;99.90;;;;;;5074198;28;20441;-57
2024/02/07 00:24:03;;;;;;;13.90;6.00;;;11.60;99.90;;;;;;5073927;28;20437;-56
2024/02/07 00:26:30;;;;;;;14.33;6.40;;;11.70;99.90;;;;;;5073536;28;21026;-57
2024/02/07 00:28:57;;;;;;;15.43;6.30;;;11.60;99.90;;;;;;5073884;28;20514;-57
2024/02/07 00:31:26;;;;;;;14.33;6.23;;;11.60;99.90;;;;;;5073791;28;20444;-56
2024/02/07 00:33:54;;;;;;;10.40;6.43;;;11.60;99.90;;;;;;5073571;28;20447;-56
2024/02/07 00:36:21;;;;;;;11.00;5.37;;;11.70;99.90;;;;;;5073357;28;21025;-56
2024/02/07 00:38:46;;;;;;;11.80;5.80;;;11.60;99.90;;;;;;5073432;28;20480;-56
2024/02/07 00:41:20;;;;;;;8.97;7.10;;;11.70;99.90;;;;;;5074005;28;20451;-56
2024/02/07 00:43:47;;;;;;;8.80;6.17;;;11.60;99.90;;;;;;5073485;28;20570;-56
2024/02/07 00:46:14;;;;;;;9.53;5.53;;;11.60;99.90;;;;;;5073632;28;20522;-56
2024/02/07 00:48:42;;;;;;;11.90;6.53;;;11.70;99.90;;;;;;5073803;28;20433;-56
2024/02/07 00:51:08;;;;;;;5.70;4.90;;;11.70;99.90;;;;;;5073258;28;20451;-56
2024/02/07 00:53:36;;;;;;;8.70;6.27;;;11.70;99.90;;;;;;5073171;28;20851;-56
2024/02/07 00:56:03;;;;;;;9.63;6.37;;;11.70;99.90;;;;;;5072858;28;20464;-57
2024/02/07 00:58:30;;;;;;;11.70;5.80;;;11.70;99.90;;;;;;5073670;28;20522;-56
2024/02/07 01:00:57;;;;;;;10.63;5.70;;;11.70;99.90;;;;;;5073218;28;20444;-57
2024/02/07 01:03:24;;;;;;;9.10;6.13;;;11.70;99.90;;;;;;5072563;28;20808;-57
2024/02/07 01:05:52;;;;;;;7.37;5.90;;;11.70;99.90;;;;;;5073275;28;20534;-56
2024/02/07 01:08:18;;;;;;;7.97;6.40;;;11.70;99.90;;;;;;5073305;28;20480;-57
2024/02/07 01:10:45;;;;;;;9.50;5.03;;;11.70;99.90;;;;;;5073334;28;20445;-57
2024/02/07 01:13:12;;;;;;;10.40;5.50;;;11.70;99.90;;;;;;5073197;28;20444;-56
2024/02/07 01:15:39;;;;;;;11.23;6.10;;;11.70;99.90;;;;;;5073259;28;20460;-56
2024/02/07 01:18:06;;;;;;;12.40;5.40;;;11.60;99.90;;;;;;5072969;28;21016;-56
2024/02/07 01:20:33;;;;;;;12.87;5.70;;;11.70;99.90;;;;;;5073413;28;20444;-56
2024/02/07 01:23:02;;;;;;;7.20;5.60;;;11.60;99.90;;;;;;5059735;28;20469;-55
2024/02/07 01:25:28;;;;;;;12.53;6.00;;;11.60;99.90;;;;;;5059060;28;20461;-56
2024/02/07 01:27:55;;;;;;;9.17;6.07;;;11.60;99.90;;;;;;5064316;28;20446;-56
2024/02/07 01:30:22;;;;;;;13.20;5.40;;;11.60;99.90;;;;;;5061901;28;20453;-56
2024/02/07 01:32:49;;;;;;;12.50;6.50;;;11.60;99.90;;;;;;5072921;28;20460;-56
2024/02/07 01:35:16;;;;;;;9.07;5.90;;;11.60;99.90;;;;;;5073216;28;20452;-57
2024/02/07 01:37:42;;;;;;;10.20;5.63;;;11.60;99.90;;;;;;5073876;28;20440;-56
2024/02/07 01:40:13;;;;;;;12.33;6.80;;;11.60;99.90;;;;;;5074029;28;20977;-57
2024/02/07 01:42:40;;;;;;;10.20;5.90;;;11.60;99.90;;;;;;5073423;28;20428;-56
2024/02/07 01:45:23;;;;;;;10.63;5.47;;;11.60;99.90;;;;;;5073010;28;20953;-56
2024/02/07 01:47:51;;;;;;;9.47;5.53;;;11.60;99.90;;;;;;5058672;28;20895;-56
2024/02/07 01:50:22;;;;;;;12.07;6.33;;;11.60;99.90;;;;;;5053498;28;20485;-56
2024/02/07 01:52:50;;;;;;;14.90;5.53;;;11.60;99.90;;;;;;5052858;28;20454;-56
2024/02/07 01:55:20;;;;;;;11.37;6.03;;;11.60;99.90;;;;;;5052805;28;20441;-57
2024/02/07 01:57:48;;;;;;;14.70;6.00;;;11.60;99.90;;;;;;5053018;28;20907;-56
2024/02/07 02:00:15;;;;;;;11.60;6.20;;;11.60;99.90;;;;;;5052562;28;20991;-56
2024/02/07 02:02:47;;;;;;;14.20;6.13;;;11.60;99.90;;;;;;5052802;28;20450;-56
2024/02/07 02:05:14;;;;;;;13.07;6.00;;;11.60;99.90;;;;;;5067184;28;20456;-56
2024/02/07 02:07:41;;;;;;;12.73;7.57;;;11.60;99.90;;;;;;5072885;28;20441;-56
2024/02/07 02:10:08;;;;;;;11.63;6.40;;;11.60;99.90;;;;;;5072646;28;20433;-56
2024/02/07 02:12:36;;;;;;;12.70;6.27;;;11.60;99.90;;;;;;5072859;28;20444;-56
2024/02/07 02:15:04;;;;;;;13.13;7.63;;;11.60;99.90;;;;;;5075168;28;20829;-56
2024/02/07 02:17:31;;;;;;;12.17;5.70;;;11.50;99.90;;;;;;5076199;28;20463;-57
2024/02/07 02:19:57;;;;;;;13.60;6.67;;;11.50;99.90;;;;;;5069366;28;20481;-56
2024/02/07 02:22:46;;;;;;;9.30;5.07;;;11.50;99.90;;;;;;5056881;28;20449;-56
2024/02/07 02:25:37;;;;;;;9.67;5.90;;;11.50;99.90;;;;;;5056159;28;20454;-57
2024/02/07 02:28:18;;;;;;;6.13;4.87;;;11.50;99.90;;;;;;5056317;28;20449;-56
2024/02/07 02:30:51;;;;;;;9.90;5.30;;;11.50;99.90;;;;;;5056028;28;20836;-56
2024/02/07 02:33:19;;;;;;;10.03;5.07;;;11.60;99.90;;;;;;5056162;28;20421;-56
2024/02/07 02:35:47;;;;;;;13.10;6.23;;;11.60;99.90;;;;;;5056047;28;20567;-56
2024/02/07 02:38:15;;;;;;;13.90;5.87;;;11.60;99.90;;;;;;5060485;28;20466;-56
2024/02/07 02:40:43;;;;;;;9.23;5.53;;;11.60;99.90;;;;;;5056688;28;20453;-56
2024/02/07 02:43:10;;;;;;;7.50;5.07;;;11.50;99.90;;;;;;5056043;28;20452;-57
2024/02/07 02:45:36;;;;;;;12.20;5.77;;;11.50;99.90;;;;;;5055863;28;20461;-57
2024/02/07 02:48:06;;;;;;;9.40;6.17;;;11.50;99.90;;;;;;5056018;28;20442;-56
2024/02/07 02:50:34;;;;;;;11.30;5.43;;;11.50;99.90;;;;;;5055563;28;20814;-56
2024/02/07 02:53:01;;;;;;;7.07;5.60;;;11.50;99.90;;;;;;5055512;28;20458;-57
2024/02/07 02:55:28;;;;;;;12.63;5.57;;;11.50;99.90;;;;;;5058623;28;20990;-56
2024/02/07 02:57:58;;;;;;;10.73;5.43;;;11.50;99.90;;;;;;5056292;28;20454;-56
2024/02/07 03:00:27;;;;;;;10.30;5.23;;;11.40;99.90;;;;;;5055579;28;20477;-56
2024/02/07 03:02:55;;;;;;;8.07;4.60;;;11.40;99.90;;;;;;5055575;28;20450;-56
2024/02/07 03:05:45;;;;;;;15.37;6.00;;;11.50;99.90;;;;;;5055473;28;20438;-56
2024/02/07 03:08:21;;;;;;;11.90;5.00;;;11.50;99.90;;;;;;5055695;28;20454;-56
2024/02/07 03:10:49;;;;;;;10.10;4.90;;;11.50;99.90;;;;;;5054451;28;20920;-56
2024/02/07 03:13:16;;;;;;;5.77;4.50;;;11.40;99.90;;;;;;5064295;28;20463;-56
2024/02/07 03:15:43;;;;;;;11.80;5.63;;;11.50;99.90;;;;;;5074827;28;20834;-56
2024/02/07 03:18:10;;;;;;;9.33;4.80;;;11.40;99.90;;;;;;5075507;28;20499;-56
2024/02/07 03:20:38;;;;;;;7.40;5.40;;;11.40;99.90;;;;;;5075287;28;20480;-56
2024/02/07 03:23:05;;;;;;;5.83;4.67;;;11.50;99.90;;;;;;5075183;28;20807;-56
2024/02/07 03:25:33;;;;;;;9.97;4.70;;;11.40;99.90;;;;;;5074442;28;20445;-56
2024/02/07 03:28:01;;;;;;;8.73;4.80;;;11.40;99.90;;;;;;5073539;28;20484;-56
2024/02/07 03:30:28;;;;;;;5.80;3.90;;;11.40;99.90;;;;;;5054148;28;20465;-55
2024/02/07 03:32:56;;;;;;;5.40;4.47;;;11.40;99.90;;;;;;5055125;28;20437;-56
2024/02/07 03:35:23;;;;;;;10.13;4.60;;;11.40;99.90;;;;;;5054678;28;20977;-56
2024/02/07 03:37:51;;;;;;;8.30;5.20;;;11.40;99.90;;;;;;5055204;28;20464;-57
2024/02/07 03:40:18;;;;;;;11.33;4.50;;;11.40;99.90;;;;;;5055712;28;20508;-56
2024/02/07 03:42:46;;;;;;;4.70;4.00;;;11.40;99.90;;;;;;5054650;28;20865;-56
2024/02/07 03:45:15;;;;;;;9.73;4.60;;;11.40;99.90;;;;;;5053295;28;20827;-56
2024/02/07 03:47:41;;;;;;;5.53;4.13;;;11.40;99.90;;;;;;5069091;28;20449;-56
2024/02/07 03:50:10;;;;;;;8.03;4.43;;;11.40;99.90;;;;;;5074738;28;20437;-56
2024/02/07 03:52:38;;;;;;;5.43;4.20;;;11.40;99.90;;;;;;5074476;28;20459;-56
2024/02/07 03:55:08;;;;;;;8.77;4.30;;;11.40;99.90;;;;;;5074772;28;20855;-56
2024/02/07 03:57:35;;;;;;;6.30;3.40;;;11.40;99.90;;;;;;5074976;28;20457;-56
2024/02/07 04:00:03;;;;;;;8.07;3.30;;;11.40;99.90;;;;;;5074872;28;20480;-57
2024/02/07 04:02:32;;;;;;;4.80;3.40;;;11.40;99.90;;;;;;5072570;28;20476;-56
2024/02/07 04:05:01;;;;;;;3.60;3.17;;;11.40;99.90;;;;;;5059699;28;20466;-56
2024/02/07 04:07:28;;;;;;;3.33;3.03;;;11.40;99.90;;;;;;5054492;28;20505;-56
2024/02/07 04:09:55;;;;;;;4.80;3.67;;;11.40;99.90;;;;;;5054228;28;20473;-56
2024/02/07 05:17:18;;;;;;;1.70;0.70;;;10.00;99.90;;;;;;5054729;28;20500;-56
2024/02/07 05:19:46;;;;;;;1.73;0.73;;;9.90;99.90;;;;;;5053984;28;20461;-56
2024/02/07 05:22:12;;;;;;;1.23;0.93;;;9.90;99.90;;;;;;5057025;28;20510;-56
2024/02/07 05:24:40;;;;;;;1.20;0.80;;;9.90;99.90;;;;;;5056404;28;20445;-56
2024/02/07 05:27:07;;;;;;;2.70;1.00;;;9.90;99.90;;;;;;5054230;28;20461;-56
2024/02/07 05:29:34;;;;;;;3.50;1.20;;;9.90;99.90;;;;;;5054166;28;20441;-57
2024/02/07 05:32:01;;;;;;;3.17;0.90;;;10.00;99.90;;;;;;5056415;28;20461;-56
2024/02/07 05:34:29;;;;;;;3.40;1.37;;;10.00;99.90;;;;;;5056219;28;20452;-56
2024/02/07 05:36:55;;;;;;;2.40;1.27;;;10.00;99.90;;;;;;5054915;28;20473;-56
2024/02/07 05:39:23;;;;;;;1.27;0.90;;;10.00;99.90;;;;;;5054028;28;20856;-56
2024/02/07 05:41:50;;;;;;;1.77;1.40;;;10.00;99.90;;;;;;5054944;28;20449;-56
2024/02/07 05:44:17;;;;;;;1.20;1.00;;;10.00;99.90;;;;;;5054287;28;20450;-56
2024/02/07 05:46:43;;;;;;;2.40;1.63;;;10.00;99.90;;;;;;5054724;28;20465;-56
2024/02/07 05:49:13;;;;;;;2.00;1.17;;;10.00;99.90;;;;;;5060066;28;20469;-56
2024/02/07 05:51:42;;;;;;;2.87;1.20;;;10.00;99.90;;;;;;5062272;28;20445;-57
2024/02/07 05:54:08;;;;;;;0.90;0.90;;;10.00;99.90;;;;;;5059537;28;20461;-56
2024/02/07 05:56:35;;;;;;;1.10;1.00;;;10.00;99.90;;;;;;5059331;28;21006;-56
2024/02/07 05:59:02;;;;;;;0.97;0.77;;;10.00;99.90;;;;;;5058047;28;20453;-57
2024/02/07 06:01:29;;;;;;;1.83;0.90;;;9.90;99.90;;;;;;5056875;28;20453;-56
2024/02/07 06:03:56;;;;;;;3.70;1.00;;;9.90;99.90;;;;;;5056849;28;20437;-57
2024/02/07 06:06:24;;;;;;;1.90;1.03;;;9.90;99.90;;;;;;5059149;28;20485;-56
2024/02/07 06:08:52;;;;;;;1.97;0.90;;;9.90;99.90;;;;;;5059221;28;20449;-56
2024/02/07 06:11:21;;;;;;;2.27;1.10;;;9.90;99.90;;;;;;5056502;28;20536;-56
2024/02/07 06:13:48;;;;;;;3.20;0.97;;;9.80;99.90;;;;;;5056287;28;20997;-56
2024/02/07 06:16:14;;;;;;;3.53;1.40;;;9.80;99.90;;;;;;5056438;28;20468;-56
2024/02/07 06:18:41;;;;;;;3.50;0.83;;;9.80;99.90;;;;;;5056772;28;20468;-56
2024/02/07 06:21:08;;;;;;;2.20;1.27;;;9.80;99.90;;;;;;5056253;28;21074;-56
2024/02/07 06:23:35;;;;;;;3.53;1.20;;;9.80;99.90;;;;;;5059011;28;20553;-56
2024/02/07 06:26:03;;;;;;;3.60;0.80;;;9.70;99.90;;;;;;5057915;28;20465;-56
2024/02/07 06:28:30;;;;;;;4.00;1.20;;;9.70;99.90;;;;;;5056489;28;20449;-56
2024/02/07 06:30:57;;;;;;;5.17;1.10;;;9.70;99.90;;;;;;5056110;28;20445;-56
2024/02/07 06:33:24;;;;;;;2.70;1.00;;;9.70;99.90;;;;;;5058169;28;20472;-56
2024/02/07 06:35:50;;;;;;;1.87;0.93;;;9.70;99.90;;;;;;5074923;28;20468;-56
2024/02/07 06:38:17;;;;;;;2.30;1.53;;;9.60;99.90;;;;;;5073177;28;20469;-55
2024/02/07 06:40:44;;;;;;;1.77;1.10;;;9.60;99.90;;;;;;5058098;28;20851;-56
2024/02/07 06:43:13;;;;;;;3.17;1.40;;;9.60;99.90;;;;;;5055859;28;20460;-56
2024/02/07 06:45:40;;;;;;;3.70;1.70;;;9.60;99.90;;;;;;5055897;28;20465;-56
2024/02/07 06:48:07;;;;;;;11.33;2.33;;;9.60;99.90;;;;;;5056096;28;20441;-57
2024/02/07 06:50:34;;;;;;;5.87;2.30;;;9.50;99.90;;;;;;5056031;28;20453;-56
2024/02/07 06:53:01;;;;;;;2.50;1.67;;;9.50;99.90;;;;;;5055510;28;20460;-56
2024/02/07 06:55:27;;;;;;;6.13;1.73;;;9.40;99.90;;;;;;5056722;28;20469;-56
2024/02/07 06:57:54;;;;;;;3.73;2.40;;;9.40;99.90;;;;;;5058494;28;20454;-56
2024/02/07 07:00:23;;;;;;;6.83;2.17;;;9.40;99.90;;;;;;5054362;28;20481;-57
2024/02/07 07:02:49;;;;;;;3.50;1.67;;;9.40;99.90;;;;;;5055730;28;20446;-57
2024/02/07 07:05:17;;;;;;;3.73;1.90;;;9.40;99.90;;;;;;5055493;28;20513;-56
2024/02/07 07:07:43;;;;;;;5.33;2.23;;;9.40;99.90;;;;;;5055604;28;20445;-56
2024/02/07 07:10:10;;;;;;;2.23;1.93;;;9.40;99.90;;;;;;5055499;28;20452;-56
2024/02/07 07:12:37;;;;;;;3.93;2.40;;;9.40;99.90;;;;;;5055739;28;20464;-56
2024/02/07 07:15:05;;;;;;;3.77;1.97;;;9.40;99.90;;;;;;5059017;28;20537;-56
2024/02/07 07:17:33;;;;;;;6.47;1.93;;;9.40;99.90;;;;;;5055278;28;20469;-56
2024/02/07 07:20:00;;;;;;;2.90;2.17;;;9.40;99.90;;;;;;5054993;28;21025;-56
2024/02/07 07:22:27;;;;;;;3.83;2.27;;;9.40;99.90;;;;;;5055302;28;20459;-56
2024/02/07 07:24:53;;;;;;;3.13;2.67;;;9.40;99.90;;;;;;5055354;28;20962;-57
2024/02/07 07:27:20;;;;;;;3.30;2.60;;;9.40;99.90;;;;;;5055033;28;20465;-56
2024/02/07 07:29:47;;;;;;;3.20;2.30;;;9.40;99.90;;;;;;5054333;28;20441;-56
2024/02/07 07:32:14;;;;;;;3.93;2.70;;;9.30;99.90;;;;;;5059162;28;20461;-56
2024/02/07 07:34:42;;;;;;;4.27;2.40;;;9.30;99.90;;;;;;5054945;28;20445;-56
2024/02/07 07:37:09;;;;;;;4.60;2.70;;;9.30;99.90;;;;;;5054904;28;20460;-56
2024/02/07 07:39:36;;;;;;;5.10;3.30;;;9.40;99.90;;;;;;5054493;28;20823;-56
2024/02/07 07:42:03;;;;;;;4.87;2.97;;;9.40;99.90;;;;;;5054983;28;20471;-56
2024/02/07 07:44:30;;;;;;;3.53;3.03;;;9.40;99.90;;;;;;5054822;28;20453;-56
2024/02/07 07:46:57;;;;;;;4.20;2.87;;;9.40;99.90;;;;;;5053720;28;20461;-56
2024/02/07 07:49:23;;;;;;;3.63;3.10;;;9.40;99.90;;;;;;5059448;28;20445;-56
2024/02/07 07:51:52;;;;;;;5.73;3.93;;;9.40;99.90;;;;;;5054097;28;20978;-56
2024/02/07 07:54:18;;;;;;;6.40;3.80;;;9.40;99.90;;;;;;5054888;28;20422;-56
2024/02/07 07:56:45;;;;;;;3.97;2.40;;;9.40;99.90;;;;;;5054972;28;20464;-56
2024/02/07 07:59:12;;;;;;;4.00;2.90;;;9.40;99.90;;;;;;5053077;28;20705;-56
2024/02/07 08:01:39;;;;;;;5.03;2.37;;;9.40;99.90;;;;;;5069821;28;20843;-56
2024/02/07 08:04:05;;;;;;;5.10;2.00;;;9.40;99.90;;;;;;5054800;28;20438;-56
2024/02/07 08:06:32;;;;;;;7.47;3.40;;;9.40;99.90;;;;;;5054558;28;20461;-56
2024/02/07 08:09:00;;;;;;;3.57;2.50;;;9.30;99.90;;;;;;5054498;28;20456;-56
2024/02/07 08:11:27;;;;;;;2.97;1.80;;;9.30;99.90;;;;;;5053890;28;20445;-56
2024/02/07 08:13:54;;;;;;;3.67;2.00;;;9.30;99.90;;;;;;5055497;28;20445;-56
2024/02/07 08:16:20;;;;;;;4.90;1.80;;;9.30;99.90;;;;;;5061167;28;20489;-56
2024/02/07 08:18:47;;;;;;;7.07;2.07;;;9.30;99.90;;;;;;5071226;28;20472;-56
2024/02/07 08:21:14;;;;;;;6.07;2.00;;;9.30;99.90;;;;;;5060263;28;21001;-56
2024/02/07 08:23:40;;;;;;;6.43;2.50;;;9.30;99.90;;;;;;5073850;28;20441;-56
2024/02/07 08:26:11;;;;;;;7.27;6.40;;;9.20;99.90;;;;;;5060288;28;20465;-56
2024/02/07 08:28:38;;;;;;;11.20;8.33;;;9.20;99.90;;;;;;5054171;28;20476;-56
2024/02/07 08:31:05;;;;;;;19.70;15.17;;;9.20;99.90;;;;;;5057219;28;20469;-55
2024/02/07 08:33:31;;;;;;;6.07;4.03;;;9.20;99.90;;;;;;5060349;28;20463;-56
2024/02/07 08:35:58;;;;;;;6.27;3.10;;;9.20;99.90;;;;;;5069034;28;20470;-56
2024/02/07 08:38:25;;;;;;;5.27;2.37;;;9.20;99.90;;;;;;5053991;28;20944;-57
2024/02/07 08:40:54;;;;;;;4.23;1.67;;;9.20;99.90;;;;;;5053954;28;20488;-57
2024/02/07 08:43:22;;;;;;;7.27;3.40;;;9.20;99.90;;;;;;5071297;28;20498;-56
2024/02/07 08:45:49;;;;;;;2.90;2.00;;;9.20;99.90;;;;;;5056871;28;20469;-56
2024/02/07 08:48:16;;;;;;;6.73;3.17;;;9.20;99.90;;;;;;5053452;28;20959;-56
2024/02/07 08:50:42;;;;;;;7.63;3.60;;;9.20;99.90;;;;;;5053643;28;20449;-56
2024/02/07 08:53:10;;;;;;;11.07;3.50;;;9.20;99.90;;;;;;5053313;28;20461;-56
2024/02/07 08:55:37;;;;;;;6.13;3.20;;;9.20;99.90;;;;;;5053185;28;20891;-56
2024/02/07 08:58:04;;;;;;;6.17;3.43;;;9.20;99.90;;;;;;5053595;28;20885;-56
2024/02/07 09:00:33;;;;;;;3.97;2.87;;;9.20;99.90;;;;;;5056002;28;20512;-56
2024/02/07 09:03:00;;;;;;;6.53;2.93;;;9.20;99.90;;;;;;5070950;28;20566;-56
2024/02/07 09:05:27;;;;;;;5.53;3.70;;;9.20;99.90;;;;;;5069083;28;20438;-55
2024/02/07 09:07:54;;;;;;;4.23;2.60;;;9.20;99.90;;;;;;5073112;28;20937;-55
2024/02/07 09:10:23;;;;;;;5.50;3.00;;;9.20;99.90;;;;;;5072344;28;20448;-55
2024/02/07 09:12:49;;;;;;;7.10;3.40;;;9.20;99.90;;;;;;5067466;28;20483;-56
2024/02/07 09:15:16;;;;;;;7.73;3.40;;;9.20;99.90;;;;;;5073128;28;20942;-55
2024/02/07 09:17:44;;;;;;;4.57;3.13;;;9.10;99.90;;;;;;5073284;28;20448;-55
2024/02/07 09:20:13;;;;;;;4.37;3.00;;;9.10;99.90;;;;;;5072895;28;20954;-56
2024/02/07 09:22:41;;;;;;;5.40;3.50;;;9.10;99.90;;;;;;5072068;28;20860;-55
2024/02/07 09:25:08;;;;;;;5.73;3.43;;;9.10;99.90;;;;;;5078533;28;20842;-56
2024/02/07 09:27:35;;;;;;;7.90;4.20;;;9.10;99.90;;;;;;5074484;28;20867;-56
2024/02/07 09:30:01;;;;;;;5.93;4.23;;;9.10;99.90;;;;;;5061545;28;20484;-55
2024/02/07 09:32:28;;;;;;;9.00;4.17;;;9.20;99.90;;;;;;5059322;28;20810;-56
2024/02/07 09:34:56;;;;;;;5.40;4.00;;;9.20;99.90;;;;;;5059769;28;20453;-55
2024/02/07 09:37:23;;;;;;;5.80;3.43;;;9.20;99.90;;;;;;5059662;28;20461;-55
2024/02/07 09:39:50;;;;;;;7.80;4.00;;;9.20;99.90;;;;;;5059691;28;20448;-56
2024/02/07 09:42:19;;;;;;;7.17;4.90;;;9.20;99.90;;;;;;5059799;28;20893;-55
2024/02/07 09:44:50;;;;;;;7.80;3.67;;;9.20;99.90;;;;;;5062096;28;20993;-55
2024/02/07 09:47:20;;;;;;;5.77;3.80;;;9.20;99.90;;;;;;5060799;28;20963;-55
2024/02/07 09:49:48;;;;;;;6.37;3.57;;;9.20;99.90;;;;;;5059657;28;20453;-55
2024/02/07 09:52:17;;;;;;;6.10;4.37;;;9.20;99.90;;;;;;5059115;28;20810;-55
2024/02/07 09:54:46;;;;;;;7.90;4.23;;;9.20;99.90;;;;;;5059364;28;20448;-55
2024/02/07 09:57:13;;;;;;;8.00;5.00;;;9.20;99.90;;;;;;5059825;28;20468;-56
2024/02/07 09:59:39;;;;;;;9.67;4.67;;;9.20;99.90;;;;;;5059693;28;20452;-55
2024/02/07 10:02:11;;;;;;;11.53;6.27;;;9.10;99.90;;;;;;5061662;28;20482;-55
2024/02/07 10:04:41;;;;;;;25.97;17.60;;;9.10;99.90;;;;;;5062333;28;21005;-55
2024/02/07 10:07:12;;;;;;;61.20;40.50;;;9.10;99.90;;;;;;5059449;28;20461;-55
2024/02/07 10:09:41;;;;;;;41.50;28.13;;;9.10;99.90;;;;;;5059642;28;20429;-55
2024/02/07 10:12:11;;;;;;;22.23;14.40;;;9.00;99.90;;;;;;5059381;28;20433;-55
2024/02/07 10:14:40;;;;;;;33.33;24.80;;;9.00;99.90;;;;;;5059315;28;20511;-55
2024/02/07 10:17:06;;;;;;;17.63;11.13;;;9.00;99.90;;;;;;5059048;28;20971;-55
2024/02/07 10:19:34;;;;;;;17.23;9.90;;;9.10;99.90;;;;;;5061668;28;20496;-56
2024/02/07 10:22:01;;;;;;;15.50;11.17;;;9.10;99.90;;;;;;5061995;28;20861;-55
2024/02/07 10:24:30;;;;;;;8.67;7.20;;;9.10;99.90;;;;;;5059039;28;20792;-56
2024/02/07 10:26:58;;;;;;;12.53;6.40;;;9.10;99.90;;;;;;5059266;28;20457;-56
2024/02/07 10:29:25;;;;;;;6.80;4.70;;;9.20;99.90;;;;;;5059454;28;20927;-55
2024/02/07 10:31:55;;;;;;;5.70;3.20;;;9.20;99.90;;;;;;5058876;28;20880;-55
2024/02/07 10:34:22;;;;;;;7.30;3.30;;;9.10;99.90;;;;;;5059255;28;20441;-56
2024/02/07 10:36:57;;;;;;;3.03;2.50;;;9.00;99.90;;;;;;5058361;28;20480;-55
2024/02/07 10:39:24;;;;;;;8.40;3.10;;;8.90;99.90;;;;;;5065237;28;20991;-55
2024/02/07 10:41:50;;;;;;;4.63;2.10;;;8.80;99.90;;;;;;5056038;28;20477;-55
2024/02/07 10:44:19;;;;;;;4.93;2.73;;;8.90;99.90;;;;;;5055988;28;20441;-55
2024/02/07 10:46:45;;;;;;;4.20;2.00;;;8.90;99.90;;;;;;5058087;28;21015;-55
2024/02/07 10:49:12;;;;;;;4.23;1.80;;;9.00;99.90;;;;;;5056830;28;20796;-55
2024/02/07 10:51:41;;;;;;;3.97;2.17;;;9.00;99.90;;;;;;5055856;28;20460;-55
2024/02/07 10:54:09;;;;;;;4.80;2.60;;;9.00;99.90;;;;;;5055455;28;20519;-56
2024/02/07 10:56:37;;;;;;;3.70;2.00;;;8.90;99.90;;;;;;5055809;28;20465;-55
2024/02/07 10:59:05;;;;;;;4.60;1.83;;;8.90;99.90;;;;;;5055972;28;20449;-56
2024/02/07 11:01:33;;;;;;;3.70;1.97;;;9.00;99.90;;;;;;5055798;28;20477;-55
2024/02/07 11:04:01;;;;;;;4.40;2.20;;;9.00;99.90;;;;;;5066384;28;20541;-55
2024/02/07 11:06:28;;;;;;;3.70;1.63;;;9.10;99.90;;;;;;5074276;28;21008;-56
2024/02/07 11:08:57;;;;;;;3.10;2.07;;;9.00;99.90;;;;;;5075326;28;20958;-56
2024/02/07 11:11:25;;;;;;;4.10;2.47;;;9.00;99.90;;;;;;5075556;28;20482;-55
2024/02/07 11:13:52;;;;;;;3.03;2.00;;;9.00;99.90;;;;;;5075517;28;20498;-56
2024/02/07 11:16:19;;;;;;;3.50;2.33;;;9.00;99.90;;;;;;5076040;28;20508;-56
2024/02/07 11:18:47;;;;;;;4.93;2.10;;;9.10;99.90;;;;;;5076154;28;20437;-56
2024/02/07 11:21:19;;;;;;;3.10;2.10;;;9.10;99.90;;;;;;5060923;28;20496;-56
2024/02/07 11:23:48;;;;;;;2.17;1.63;;;9.20;99.90;;;;;;5056052;28;20473;-55
2024/02/07 11:26:16;;;;;;;2.13;1.40;;;9.20;99.90;;;;;;5055306;28;20470;-56
2024/02/07 11:28:43;;;;;;;2.53;1.17;;;9.20;99.90;;;;;;5055024;28;20483;-56
2024/02/07 11:31:10;;;;;;;1.67;0.83;;;9.20;99.90;;;;;;5055125;28;20433;-55
2024/02/07 11:33:37;;;;;;;4.37;1.23;;;9.20;99.90;;;;;;5054989;28;20448;-56
2024/02/07 11:36:15;;;;;;;3.70;1.03;;;9.20;99.90;;;;;;5054771;28;20964;-55
2024/02/07 11:38:43;;;;;;;2.30;1.10;;;9.20;99.90;;;;;;5059298;28;20461;-55
2024/02/07 11:41:10;;;;;;;2.30;1.10;;;9.10;99.90;;;;;;5054891;28;20489;-55
2024/02/07 11:43:37;;;;;;;1.73;1.47;;;9.00;99.90;;;;;;5055036;28;20449;-55
2024/02/07 11:46:06;;;;;;;2.30;1.77;;;8.90;99.90;;;;;;5053600;28;21223;-55
2024/02/07 11:48:39;;;;;;;3.03;1.97;;;8.90;99.90;;;;;;5070023;28;20449;-55
2024/02/07 11:51:08;;;;;;;7.17;1.20;;;8.80;99.90;;;;;;5074756;28;20421;-55
2024/02/07 11:53:39;;;;;;;2.30;1.10;;;8.70;99.90;;;;;;5074496;28;20449;-55
2024/02/07 11:56:11;;;;;;;1.87;1.10;;;8.60;99.90;;;;;;5074777;28;20460;-56
2024/02/07 11:58:38;;;;;;;4.20;1.17;;;8.60;99.90;;;;;;5074860;28;20817;-55
2024/02/07 12:01:08;;;;;;;3.50;1.10;;;8.50;99.90;;;;;;5074528;28;20441;-55
2024/02/07 12:03:36;;;;;;;4.40;0.90;;;8.50;99.90;;;;;;5072696;28;20885;-55
2024/02/07 12:06:04;;;;;;;6.90;1.00;;;8.50;99.90;;;;;;5055886;28;20469;-55
2024/02/07 12:08:32;;;;;;;1.37;0.87;;;8.60;99.90;;;;;;5054549;28;20446;-56
2024/02/07 12:10:59;;;;;;;1.83;1.17;;;8.50;99.90;;;;;;5054605;28;20452;-55
2024/02/07 12:13:26;;;;;;;3.60;1.23;;;8.50;99.90;;;;;;5054561;28;20445;-55
2024/02/07 12:15:53;;;;;;;1.80;1.43;;;8.50;99.90;;;;;;5054314;28;20465;-55
2024/02/07 12:18:19;;;;;;;3.97;2.10;;;8.60;99.90;;;;;;5054263;28;20449;-55
2024/02/07 12:20:46;;;;;;;7.47;2.23;;;8.40;99.90;;;;;;5054053;28;20982;-55
2024/02/07 12:23:13;;;;;;;2.40;1.50;;;8.30;99.90;;;;;;5059330;28;20488;-55
2024/02/07 12:25:41;;;;;;;1.63;1.20;;;8.20;99.90;;;;;;5054082;28;20831;-55
2024/02/07 12:28:12;;;;;;;3.80;2.03;;;8.30;99.90;;;;;;5053986;28;20823;-55
2024/02/07 12:30:39;;;;;;;2.73;2.00;;;8.30;99.90;;;;;;5054275;28;20445;-57
2024/02/07 12:33:05;;;;;;;5.07;2.50;;;8.40;99.90;;;;;;5054428;28;20441;-56
2024/02/07 12:35:32;;;;;;;4.33;2.80;;;8.40;99.90;;;;;;5054195;28;20453;-57
2024/02/07 12:38:01;;;;;;;4.83;2.67;;;8.40;99.90;;;;;;5056037;28;20469;-56
2024/02/07 12:40:30;;;;;;;4.93;2.73;;;8.40;99.90;;;;;;5073399;28;20464;-56
2024/02/07 12:42:58;;;;;;;3.37;2.07;;;8.40;99.90;;;;;;5075114;28;20571;-56
2024/02/07 12:45:25;;;;;;;3.60;2.20;;;8.50;99.90;;;;;;5074699;28;20449;-57
2024/02/07 12:47:52;;;;;;;5.47;3.23;;;8.60;99.90;;;;;;5068545;28;20829;-57
2024/02/07 12:50:19;;;;;;;6.03;2.97;;;8.50;99.90;;;;;;5066665;28;20444;-57
2024/02/07 12:52:46;;;;;;;5.13;2.80;;;8.50;99.90;;;;;;5073507;28;20468;-55
2024/02/07 12:55:13;;;;;;;5.50;3.93;;;8.50;99.90;;;;;;5074212;28;20445;-54
2024/02/07 12:57:42;;;;;;;9.57;4.90;;;8.40;99.90;;;;;;5073898;28;20488;-56
2024/02/07 13:00:11;;;;;;;6.10;3.83;;;8.40;99.90;;;;;;5073139;28;21025;-55
2024/02/07 13:02:46;;;;;;;7.40;3.80;;;8.50;99.90;;;;;;5073801;28;20483;-54
2024/02/07 13:05:13;;;;;;;5.97;2.77;;;8.50;99.90;;;;;;5066000;28;20457;-54
2024/02/07 13:07:40;;;;;;;7.53;2.70;;;8.50;99.90;;;;;;5055808;28;20838;-55
2024/02/07 13:10:09;;;;;;;5.30;2.33;;;8.60;99.90;;;;;;5055394;28;20440;-54
2024/02/07 13:12:37;;;;;;;2.67;2.47;;;8.70;99.90;;;;;;5054951;28;20955;-54
2024/02/07 13:15:05;;;;;;;4.20;2.57;;;8.80;99.90;;;;;;5055081;28;20928;-54
2024/02/07 13:17:35;;;;;;;7.37;2.30;;;8.90;99.90;;;;;;5055919;28;20468;-55
2024/02/07 13:20:02;;;;;;;3.83;1.43;;;9.00;99.90;;;;;;5055814;28;20904;-54
2024/02/07 13:22:29;;;;;;;6.27;2.33;;;9.10;99.90;;;;;;5058030;28;20481;-54
2024/02/07 13:24:56;;;;;;;2.83;1.70;;;9.20;99.90;;;;;;5056156;28;20453;-54
2024/02/07 13:27:23;;;;;;;2.83;1.60;;;9.20;99.90;;;;;;5053229;28;20465;-55
2024/02/07 13:29:49;;;;;;;2.47;1.40;;;9.30;99.90;;;;;;5053328;28;20444;-55
2024/02/07 13:32:21;;;;;;;4.57;1.47;;;9.30;99.90;;;;;;5053081;28;20437;-54
2024/02/07 13:34:49;;;;;;;2.30;1.87;;;9.20;99.90;;;;;;5053047;28;20429;-54
2024/02/07 13:37:16;;;;;;;2.60;2.17;;;9.20;99.90;;;;;;5052708;28;20946;-54
2024/02/07 13:39:43;;;;;;;5.40;2.40;;;9.10;99.90;;;;;;5055661;28;20488;-54
2024/02/07 13:42:10;;;;;;;3.10;2.80;;;8.90;99.90;;;;;;5054614;28;20482;-54
2024/02/07 13:44:36;;;;;;;4.87;2.97;;;8.90;99.90;;;;;;5053219;28;20445;-54
2024/02/07 13:47:03;;;;;;;5.13;2.43;;;8.80;99.90;;;;;;5056789;28;20493;-54
2024/02/07 13:49:30;;;;;;;6.70;3.00;;;8.70;99.90;;;;;;5051157;28;20963;-54
2024/02/07 13:51:59;;;;;;;5.60;2.73;;;8.60;99.90;;;;;;5052607;28;20463;-54
2024/02/07 13:54:25;;;;;;;7.60;3.10;;;8.60;99.90;;;;;;5052927;28;20511;-54
2024/02/07 13:56:52;;;;;;;5.93;3.40;;;8.60;99.90;;;;;;5052549;28;20994;-54
2024/02/07 13:59:19;;;;;;;3.40;3.10;;;8.50;99.90;;;;;;5052943;28;20445;-54